createdAt,value
2022-10-30T00:09:18.518Z,98025.31
2022-10-30T00:19:19.972Z,98016.56
2022-10-30T00:29:24.998Z,98027.75
2022-10-30T00:39:26.453Z,98023.53
2022-10-30T00:49:27.933Z,98024.34
2022-10-30T00:59:33.381Z,98018.75
2022-10-30T01:09:35.538Z,98017.19
2022-10-30T01:20:15.580Z,98017.19
2022-10-30T01:30:50.872Z,98009.75
2022-10-30T01:40:56.071Z,98017.41
2022-10-30T01:51:12.556Z,98006.81
2022-10-30T02:01:15.528Z,98010.03
2022-10-30T02:11:18.206Z,98006.28
2022-10-30T02:21:20.137Z,98000.22
2022-10-30T02:31:21.616Z,98003.13
2022-10-30T02:41:23.546Z,97991.16
2022-10-30T02:51:25.232Z,97986.38
2022-10-30T03:01:27.250Z,97985.28
2022-10-30T03:11:33.979Z,97990.53
2022-10-30T03:21:35.497Z,97987.28
2022-10-30T03:31:37.043Z,97985.91
2022-10-30T03:42:07.985Z,97993.81
2022-10-30T03:52:09.768Z,97989.72
2022-10-30T04:02:11.682Z,97985.69
2022-10-30T04:12:15.594Z,97989.72
2022-10-30T04:22:17.188Z,97997.53
2022-10-30T04:32:19.374Z,97989.72
2022-10-30T04:42:21.295Z,97994.97
2022-10-30T04:52:22.959Z,97998.22
2022-10-30T05:02:25.897Z,98005.13
2022-10-30T05:12:28.317Z,97996.03
2022-10-30T05:22:31.468Z,97976.19
2022-10-30T05:32:33.933Z,97973.88
2022-10-30T05:42:35.698Z,97966.19
2022-10-30T05:52:39.379Z,97987.16
2022-10-30T06:02:43.363Z,97981.06
2022-10-30T06:12:56.403Z,97993.31
2022-10-30T06:23:08.378Z,97997.41
2022-10-30T06:33:35.853Z,98013.03
2022-10-30T06:43:37.504Z,98013.94
2022-10-30T06:53:44.173Z,98016.63
2022-10-30T07:04:08.925Z,98023.31
2022-10-30T07:14:10.506Z,98020.88
2022-10-30T07:24:19.730Z,98024.09
2022-10-30T07:34:46.624Z,98016.81
2022-10-30T07:55:48.715Z,98010.28
2022-10-30T08:06:13.130Z,98011.53
2022-10-30T08:16:14.986Z,98017.22
2022-10-30T08:26:17.909Z,98003.03
2022-10-30T08:36:19.514Z,97988.81
2022-10-30T08:46:21.272Z,97998.06
2022-10-30T08:56:22.836Z,97986.63
2022-10-30T09:06:36.421Z,97987.53
2022-10-30T09:17:02.344Z,97977.91
2022-10-30T09:27:05.816Z,97989.41
2022-10-30T09:37:19.144Z,97983.34
2022-10-30T09:47:24.548Z,97983.00
2022-10-30T09:57:38.419Z,97978.63
2022-10-30T10:07:51.256Z,97968.78
2022-10-30T10:18:20.812Z,97977.31
2022-10-30T10:28:25.288Z,97965.81
2022-10-30T10:38:32.993Z,97957.78
2022-10-30T10:49:02.448Z,97952.41
2022-10-30T10:59:13.673Z,97936.16
2022-10-30T11:09:20.104Z,97921.69
2022-10-30T11:19:21.664Z,97911.94
2022-10-30T11:29:27.788Z,97909.72
2022-10-30T11:39:35.693Z,97915.75
2022-10-30T11:50:02.455Z,97901.84
2022-10-30T12:00:14.352Z,97899.75
2022-10-30T12:10:27.792Z,97889.75
2022-10-30T12:20:29.844Z,97881.06
2022-10-30T12:30:37.890Z,97871.94
2022-10-30T12:40:45.165Z,97867.44
2022-10-30T12:51:06.855Z,97853.06
2022-10-30T13:01:46.508Z,97850.97
2022-10-30T13:12:15.304Z,97836.34
2022-10-30T13:22:22.517Z,97837.91
2022-10-30T13:32:32.215Z,97833.72
2022-10-30T13:42:48.914Z,97826.19
2022-10-30T13:52:54.955Z,97832.72
2022-10-30T14:03:12.534Z,97837.03
2022-10-30T14:13:20.572Z,97830.50
2022-10-30T14:23:25.045Z,97839.06
2022-10-30T14:33:53.910Z,97835.91
2022-10-30T14:44:04.608Z,97841.25
2022-10-30T14:54:32.388Z,97836.16
2022-10-30T15:05:12.771Z,97834.81
2022-10-30T15:15:18.521Z,97839.53
2022-10-30T15:25:22.922Z,97847.41
2022-10-30T15:35:27.285Z,97841.06
2022-10-30T15:45:33.861Z,97847.56
2022-10-30T15:55:35.697Z,97853.06
2022-10-30T16:05:37.332Z,97860.25
2022-10-30T16:15:39.892Z,97864.56
2022-10-30T16:25:46.753Z,97867.38
2022-10-30T16:35:55.525Z,97871.84
2022-10-30T16:46:12.665Z,97874.22
2022-10-30T16:56:32.454Z,97870.38
2022-10-30T17:06:41.256Z,97878.28
2022-10-30T17:16:52.822Z,97890.91
2022-10-30T17:26:57.251Z,97901.41
2022-10-30T17:36:59.851Z,97910.75
2022-10-30T17:47:13.927Z,97913.16
2022-10-30T17:57:16.218Z,97922.25
2022-10-30T18:07:17.798Z,97923.28
2022-10-30T18:17:19.348Z,97937.34
2022-10-30T18:27:21.052Z,97947.88
2022-10-30T18:37:22.642Z,97943.22
2022-10-30T18:47:24.242Z,97939.91
2022-10-30T18:57:25.697Z,97943.19
2022-10-30T19:07:27.171Z,97944.09
2022-10-30T19:17:31.057Z,97943.59
2022-10-30T19:27:32.513Z,97949.53
2022-10-30T19:37:34.427Z,97949.59
2022-10-30T19:47:36.556Z,97958.97
2022-10-30T19:57:38.014Z,97963.00
2022-10-30T20:07:39.842Z,97957.69
2022-10-30T20:17:41.648Z,97963.03
2022-10-30T20:27:44.973Z,97969.91
2022-10-30T20:37:58.981Z,97965.44
2022-10-30T20:48:00.865Z,97984.00
2022-10-30T20:58:02.907Z,97984.28
2022-10-30T21:08:04.774Z,97998.34
2022-10-30T21:18:06.642Z,97996.22
2022-10-30T21:28:08.079Z,98002.31
2022-10-30T21:38:09.762Z,98007.59
2022-10-30T21:48:11.197Z,98004.91
2022-10-30T21:58:13.767Z,97993.50
2022-10-30T22:08:17.672Z,97999.53
2022-10-30T22:18:20.551Z,97993.19
2022-10-30T22:28:22.439Z,97979.88
2022-10-30T22:38:23.865Z,97967.88
2022-10-30T22:48:25.445Z,97983.47
2022-10-30T22:58:30.455Z,97984.50
2022-10-30T23:08:32.046Z,97982.88
2022-10-30T23:18:34.553Z,97983.81
2022-10-30T23:28:36.260Z,97977.72
2022-10-30T23:38:37.697Z,97985.34
2022-10-30T23:48:39.365Z,97992.47
2022-10-30T23:58:48.756Z,97982.84
